Strona główna
METAR-TAF:

METAR-TAF

Lotnisko :

Port lotniczy Pointe-à-Pitre

Pointe-à-Pitre, Gwadelupa

Szerokość geograficzna: 16-16N, Długość geograficzna: 061-31W, wysokość: 11 m

Aktualna obserwacja pogody

Raport powstał 16 minut temu, godzina 03:00 UTC
Wiatr 3 kt od wschód
Temperatura 26°C
Wilgotność 84%
Ciśnienie 1018 hPa
Widzialność 10 km lub więcej
Mało chmury na wysokości 2100 ft

METAR: TFFR 180300Z AUTO 10003KT 9999 FEW021 26/23 Q1018

czas: 23:16 (03:16 UTC)

Prognoza

Raport powstał 23 godziny i 16 minut temu, godzina 04:00 UTC
Prognoza ważna od 17 godzina 06 UTC do 18 godzina 06 UTC
Wiatr 8 kt od wschodnio-południowy wschód
Widzialność 10 km lub więcej
Mało chmury na wysokości 2500 ft
Rozproszone chmury na wysokości 4000 ft
Prawdopodobieństwo 30% :
Przejściowo
od 17 godzina 07 UTC do 17 godzina 14 UTC
Widzialność: 4500 m
Przerywane chmury na wysokości 1800 ft, Cumulusy wypiętrznone.
przelotny opad deszczu

TAF: TFFR 170400Z 1706/1806 11008KT 9999 FEW025 SCT040 PROB30 TEMPO 1707/1714 4500 SHRA BKN018TCU

Obserwacja i prognoza pogody dla ponad 4000 lotnisk (raport METAR i TAF).

Dostępne stacje oznaczono żółtymi i czerwonymi punktami na mapie.

Najedź kursorem aby zobaczyć nazwę stacji.

Kliknij aby zobaczyć obserwacje i prognozy pogody.

Aby zmienić mapę: kliknij na zielony przycisk z czarnym krzyżykiem, aby powiększyć; na zielony przycisk z myślnikiem, aby pomniejszyć; na zielone strzałki, aby przejść do map sąsiednich.


METAR-TAF: